Mt. Lincoln Summit Weather observations

Data are for 10 minute period ending at time listed.
 Day   Time   Solar   Ave.   Ave.  Ave.  Vector    Max.   Stn.  
  of    of     Rad.   Air    Rel.  Wind   Wind     Wind   Baro.  
Year   Day            Temp.  Hum.  Speed  Dir.     Gust   Pres. 
2014   (PST)   W/m2    F      %     mph   deg.      mph    mb    
-----------------------------------------------------------------
 328   20:20  999.0    36   76.0     6    282.6     7.2   585.50
 328   20:30  999.0    36   76.0     6    279.7     6.9   582.20
 328   20:40  999.0    36   75.9     3    277.8     7.5   584.60
 328   20:50  999.0    36   76.1     3    326.3     4.2   581.80
 328   21:00  999.0    36   76.3     6    327.3     7.7   588.00
 328   21:10  999.0    37   76.3    11    329.4    15.0   590.20
 328   21:20  999.0    37   76.2    16    332.9    20.7   589.20
 328   21:30  999.0    38   76.0    17    329.3    21.6   585.80
 328   21:40  999.0    38   75.9    17    322.3    20.4   586.60
 328   21:50  999.0    37   75.8    17    310.8    19.5   585.10
 328   22:00  999.0    37   75.8    19    307.8    21.2   590.40
 328   22:10  999.0    38   75.6    20    307.2    22.7   589.60
 328   22:20  999.0    38   75.4    17    294.7    23.5   588.10
 328   22:30  999.0    38   75.2    16    286.0    19.7   590.60
 328   22:40  999.0    38   75.1    19    284.8    24.2   590.10
 328   22:50  999.0    38   74.9    20    278.2    25.0   595.20
 328   23:00  999.0    38   74.8    21    278.6    25.9   592.30
 328   23:10  999.0    38   74.7    20    269.6    25.7   587.40
 328   23:20  999.0    37   74.7    19    265.9    25.9   589.20
 328   23:30  999.0    37   74.7    20    259.1    27.1   589.80
 328   23:40  999.0    38   74.6    20    262.8    23.1   589.40
 328   23:50  999.0    38   74.5    19    269.0    22.7   589.90
 329    0:00  999.0    38   74.4    16    259.7    22.0   588.70
 329    0:10  999.0    37   74.3    17    258.4    23.7   588.30
 329    0:20  999.0    38   74.4    15    283.9    21.9   589.10
 329    0:30  999.0    38   74.5    14    291.8    22.3   588.00
 329    0:40  999.0    38   74.3    13    280.9    16.8   587.10
 329    0:50  999.0    38   74.3    16    275.4    20.2   587.70
 329    1:00  999.0    38   74.2    18    270.2    22.0   589.50
 329    1:10  999.0    37   74.2    18    268.6    21.5   591.00
 329    1:20  999.0    37   74.2    20    258.1    23.1   590.30
 329    1:30  999.0    37   74.2    20    265.0    22.2   587.00
 329    1:40  999.0    37   74.1    20    256.2    23.1   591.30
 329    1:50  999.0    37   74.1    20    253.3    22.7   593.50
 329    2:00  999.0    37   74.1    20    256.5    22.8   592.60
 329    2:10  999.0    37   74.2    23    269.7    27.4   596.90
 329    2:20  999.0    37   74.3    21    268.1    27.8   594.00
 329    2:30  999.0    37   74.6    22    276.2    27.7   591.00
 329    2:40  999.0    37   74.8    21    272.4    27.6   590.10
 329    2:50  999.0    38   74.7    19    273.1    25.1   592.80
 329    3:00  999.0    37   74.6    20    262.1    24.5   591.10
 329    3:10  999.0    37   74.6    20    251.8    24.5   591.30
 329    3:20  999.0    36   74.5    21    244.9    23.3   591.40
 329    3:30  999.0    36   74.5    21    241.2    24.9   592.60
 329    3:40  999.0    36   74.6    21    251.0    25.8   587.60
 329    3:50  999.0    37   74.6    21    264.3    27.1   589.60
 329    4:00  999.0    37   74.5    22    264.9    27.4   592.00
 329    4:10  999.0    37   74.6    25    267.4    30.2   598.10
 329    4:20  999.0    37   74.6    26    274.7    32.1   596.80
 329    4:30  999.0    38   74.6    27    276.2    32.2   592.10
 329    4:40  999.0    38   74.5    25    271.8    30.7   592.60
 329    4:50  999.0    38   74.5    27    270.2    32.1   590.70
 329    5:00  999.0    38   74.6    26    269.8    30.9   590.30
 329    5:10  999.0    38   74.7    27    274.3    29.6   592.90
 329    5:20  999.0    38   74.7    25    279.5    29.5   592.50
 329    5:30  999.0    40   75.0    20    289.6    23.4   589.00
 329    5:40  999.0    41   75.1    19    287.4    22.1   587.40
 329    5:50  999.0    41   74.8    23    280.8    27.2   587.90
 329    6:00  999.0    40   74.7    26    275.1    28.7   590.60
 329    6:10  999.0    40   74.7    23    278.5    26.5   590.40
 329    6:20  999.0    39   74.6    24    274.6    26.7   591.80
 329    6:30  999.0    39   74.6    24    275.7    27.2   592.00
 329    6:40  999.0    39   74.8    17    288.4    22.4   589.80
 329    6:50  999.0    39   74.6    18    303.1    25.8   589.10
 329    7:00  999.0    39   74.5    23    307.0    28.7   592.40
 329    7:10  999.0    39   74.5    26    306.2    28.7   591.10
 329    7:20  999.0    39   74.5    21    309.6    23.7   590.90
 329    7:30  999.0    39   74.5    21    313.9    24.3   591.40
 329    7:40  999.0    40   74.6    25    324.5    29.2   591.40
 329    7:50  999.0    40   74.7    25    326.2    29.6   589.30
 329    8:00  999.0    41   74.7    26    324.3    30.2   590.40
 329    8:10  999.0    42   74.7    26    314.9    29.4   593.20
 329    8:20  999.0    42   74.6    27    309.9    32.9   591.20
 329    8:30  999.0    42   74.4    26    310.3    31.1   592.70
 329    8:40  999.0    42   74.4    27    308.2    32.6   592.50
 329    8:50  999.0    42   74.2    23    306.5    28.3   593.30
 329    9:00  999.0    42   74.1    22    304.8    26.5   590.40
 329    9:10  999.0    42   74.1    18    304.5    24.0   589.30
 329    9:20  999.0    42   74.0    13    293.8    18.2   589.20
 329    9:30  999.0    42   73.9    13    270.0    19.1   585.90
 329    9:40  999.0    42   73.9    14    266.0    18.4   584.70
 329    9:50  999.0    42   73.9    15    254.6    21.3   590.50
 329   10:00  999.0    42   73.9    17    259.1    20.6   588.30
 329   10:10  999.0    42   73.9    18    250.7    21.0   586.30
 329   10:20  999.0    42   73.9    18    250.5    22.4   587.90
 329   10:30  999.0    42   73.9    17    247.1    21.0   589.10
 329   10:40  999.0    42   74.0    18    255.3    23.0   589.90
 329   10:50  999.0    42   73.9    19    261.3    24.0   594.30
 329   11:00  999.0    42   73.9    19    268.0    25.4   589.50
 329   11:10  999.0    43   74.1    20    271.0    27.1   594.70
 329   11:20  999.0    44   74.2    19    284.3    27.4   594.10
 329   11:30  999.0    44   74.0    16    270.2    22.6   592.00
 329   11:40  999.0    44   74.1    16    263.2    22.9   590.60
 329   11:50  999.0    44   74.1    13    246.2    20.3   588.90
 329   12:00  999.0    44   74.0    14    258.0    26.1   588.00
 329   12:10  999.0    44   74.1    14    257.9    19.8   589.70
 329   12:20  999.0    44   74.1    14    267.2    22.9   591.30
 329   12:30  999.0    44   74.2    14    279.5    21.3   590.70
 329   12:40  999.0    45   74.2    11    277.2    18.7   591.30
 329   12:50  999.0    45   74.2    10    251.5    18.6   590.20
 329   13:00  999.0    46   74.1    12    262.8    18.9   590.10
 329   13:10  999.0    46   74.2     8    255.2    14.3   592.10
 329   13:20  999.0    46   74.2     5    266.8    12.4   589.90
 329   13:30  999.0    46   74.1     8    257.5    13.0   594.00
 329   13:40  999.0    46   74.0    12    275.8    22.4   593.90
 329   13:50  999.0    46   74.3    17    305.5    31.4   597.50
 329   14:00  999.0    47   74.3    12    298.4    25.7   593.70
 329   14:10  999.0    47   74.2    10    295.1    22.3   594.50
 329   14:20  999.0    47   74.2    10    265.4    14.5   595.00
 329   14:30  999.0    47   74.2    12    283.7    19.9   595.50
 329   14:40  999.0    47   74.2    11    289.2    15.2   593.80
 329   14:50  999.0    47   74.2    10    274.2    22.1   592.80
 329   15:00  999.0    46   74.1    12    291.3    18.6   592.60
 329   15:10  999.0    47   74.2    18    300.0    28.5   591.30
 329   15:20  999.0    46   74.3    17    296.4    25.6   594.70
 329   15:30  999.0    46   74.3    20    307.2    32.1   592.30
 329   15:40  999.0    46   74.3    18    297.1    23.6   592.70
 329   15:50  999.0    46   74.3    19    298.6    32.9   591.30
 329   16:00  999.0    46   74.4    18    298.8    28.2   589.60
 329   16:10  999.0    46   74.3    19    297.2    31.1   590.90
 329   16:20  999.0    46   74.5    20    296.7    34.1   590.00
 329   16:30  999.0    46   74.3    17    295.6    24.7   586.60
 329   16:40  999.0    47   74.2    18    305.8    23.3   583.70
 329   16:50  999.0    46   74.2    18    310.4    22.0   586.60
 329   17:00  999.0    46   74.3    21    314.3    26.3   587.10
 329   17:10  999.0    46   74.5    23    319.3    27.3   590.30
 329   17:20  999.0    46   74.6    26    325.0    30.5   592.50
 329   17:30  999.0    46   74.6    27    330.4    32.3   590.80
 329   17:40  999.0    46   74.5    25    334.4    30.9   585.40
 329   17:50  999.0    46   74.6    26    333.8    31.5   590.00
 329   18:00  999.0    46   74.6    26    335.7    31.0   590.90
 329   18:10  999.0    46   74.6    26    336.5    32.1   590.60
 329   18:20  999.0    46   74.6    26    336.4    31.0   589.40
 329   18:30  999.0    46   74.6    27    337.3    31.9   590.30
 329   18:40  999.0    46   74.6    26    336.7    33.9   588.10
 329   18:50  999.0    47   74.6    26    337.1    32.1   591.90
 329   19:00  999.0    47   74.6    25    337.7    29.6   590.20
 329   19:10  999.0    46   74.6    22    336.6    28.5   591.20
 329   19:20  999.0    46   74.6    22    334.0    27.0   587.60
 329   19:30  999.0    46   74.6    23    334.3    29.1   589.00
 329   19:40  999.0    46   74.6    24    334.3    28.3   588.40
 329   19:50  999.0    46   74.6    23    334.3    29.8   591.80
 329   20:00  999.0    47   74.6    23    332.1    27.3   592.40
 329   20:10  999.0    47   74.6    22    331.8    28.0   592.30

Return to Mt. Lincoln graphs page.


Western Regional Climate Center,wrcc@dri.edu